Time;durP1;ratioP1;P1;durP2;ratioP2;P2;SDS_P1;SDS_P2;PMS_P1;PMS_P2;Temp;Humidity;BMP_temperature;BMP_pressure;BME280_temperature;BME280_humidity;BME280_pressure;Samples;Min_cycle;Max_cycle;Signal;HPM_P1;HPM_P2
2023/08/31 00:00:12;;;;;;;1999.90;999.90;;;;;;;;;;6246804;22;20032;-84
2023/08/31 00:02:40;;;;;;;1999.90;999.90;;;;;;;;;;6246254;22;20050;-84
2023/08/31 00:05:08;;;;;;;1999.90;999.90;;;;;;;;;;6245391;22;20028;-83
2023/08/31 00:07:35;;;;;;;1999.90;999.90;;;;;;;;;;6246021;22;20027;-84
2023/08/31 00:10:08;;;;;;;1999.90;999.90;;;;;;;;;;6272711;22;20020;-84
2023/08/31 00:12:36;;;;;;;1999.90;999.90;;;;;;;;;;6271886;22;20016;-83
2023/08/31 00:15:04;;;;;;;1999.90;999.90;;;;;;;;;;6245319;22;20489;-84
2023/08/31 00:17:32;;;;;;;1999.90;999.90;;;;;;;;;;6220656;22;20023;-84
2023/08/31 00:19:59;;;;;;;1999.90;999.90;;;;;;;;;;6272725;22;20416;-84
2023/08/31 00:22:26;;;;;;;1999.90;999.90;;;;;;;;;;6271985;22;20473;-83
2023/08/31 00:24:53;;;;;;;1999.90;999.90;;;;;;;;;;6245648;22;20026;-83
2023/08/31 00:27:21;;;;;;;1999.90;999.90;;;;;;;;;;6244884;22;20474;-84
2023/08/31 00:29:50;;;;;;;1999.90;999.90;;;;;;;;;;6244358;22;20031;-84
2023/08/31 00:32:17;;;;;;;1999.90;999.90;;;;;;;;;;6271529;22;20455;-85
2023/08/31 00:34:46;;;;;;;1999.90;999.90;;;;;;;;;;6245460;22;20594;-84
2023/08/31 00:37:13;;;;;;;1999.90;999.90;;;;;;;;;;6271810;22;20030;-83
2023/08/31 00:39:40;;;;;;;1999.90;999.90;;;;;;;;;;6271644;22;20499;-84
2023/08/31 00:42:07;;;;;;;1999.90;999.90;;;;;;;;;;6271628;22;20019;-84
2023/08/31 00:44:34;;;;;;;1999.90;999.90;;;;;;;;;;6272351;22;20126;-85
2023/08/31 00:47:02;;;;;;;1999.90;999.90;;;;;;;;;;6271913;22;20042;-85
2023/08/31 00:49:28;;;;;;;1999.90;999.90;;;;;;;;;;6245382;22;20023;-84
2023/08/31 00:51:57;;;;;;;1999.90;999.90;;;;;;;;;;6245387;22;20026;-84
2023/08/31 00:54:24;;;;;;;1999.90;999.90;;;;;;;;;;6245250;22;20077;-84
2023/08/31 00:56:54;;;;;;;1999.90;999.90;;;;;;;;;;6245364;22;20030;-84
2023/08/31 00:59:21;;;;;;;1999.90;999.90;;;;;;;;;;6244984;22;20019;-82
2023/08/31 01:01:52;;;;;;;1999.90;999.90;;;;;;;;;;6271787;22;20026;-81
2023/08/31 01:04:22;;;;;;;1999.90;999.90;;;;;;;;;;6249694;22;20035;-77
2023/08/31 01:06:57;;;;;;;1999.90;999.90;;;;;;;;;;6243297;23;20044;-78
2023/08/31 01:09:41;;;;;;;1999.90;999.90;;;;;;;;;;6244281;23;20103;-77
2023/08/31 01:12:11;;;;;;;1999.90;999.90;;;;;;;;;;6244254;23;20019;-77
2023/08/31 01:14:42;;;;;;;1999.90;999.90;;;;;;;;;;6243446;23;20023;-78
2023/08/31 01:17:09;;;;;;;1999.90;999.90;;;;;;;;;;6243971;23;20098;-78
2023/08/31 01:19:45;;;;;;;1999.90;999.90;;;;;;;;;;6244420;23;20028;-79
2023/08/31 01:22:17;;;;;;;1999.90;999.90;;;;;;;;;;6244106;23;20020;-78
2023/08/31 01:24:45;;;;;;;1999.90;999.90;;;;;;;;;;6243804;23;20090;-78
2023/08/31 01:27:12;;;;;;;1999.90;999.90;;;;;;;;;;6244354;23;20016;-78
2023/08/31 01:29:39;;;;;;;1999.90;999.90;;;;;;;;;;6243741;23;20022;-78
2023/08/31 01:32:07;;;;;;;1999.90;999.90;;;;;;;;;;6243339;23;20020;-80
2023/08/31 01:34:34;;;;;;;1999.90;999.90;;;;;;;;;;6243376;23;20024;-79
2023/08/31 01:37:04;;;;;;;1999.90;999.90;;;;;;;;;;6244114;23;20126;-79
2023/08/31 01:39:38;;;;;;;1999.90;999.90;;;;;;;;;;6243817;23;20225;-79
2023/08/31 01:42:06;;;;;;;1999.90;999.90;;;;;;;;;;6242992;23;20506;-79
2023/08/31 01:44:35;;;;;;;1999.90;999.90;;;;;;;;;;6244465;23;20346;-79
2023/08/31 01:47:04;;;;;;;1999.90;999.90;;;;;;;;;;6243247;23;20024;-85
2023/08/31 01:49:36;;;;;;;1999.90;999.90;;;;;;;;;;6241925;23;20035;-80
2023/08/31 01:52:09;;;;;;;1999.90;999.90;;;;;;;;;;6242308;23;20020;-78
2023/08/31 01:54:37;;;;;;;1999.90;999.90;;;;;;;;;;6242703;23;20026;-79
2023/08/31 01:57:05;;;;;;;1999.90;999.90;;;;;;;;;;6242326;23;20024;-85
2023/08/31 01:59:33;;;;;;;1999.90;999.90;;;;;;;;;;6242263;23;20074;-83
2023/08/31 02:02:00;;;;;;;1999.90;999.90;;;;;;;;;;6242988;23;20066;-81
2023/08/31 02:04:26;;;;;;;1999.90;999.90;;;;;;;;;;6242867;23;20020;-83
2023/08/31 02:06:53;;;;;;;1999.90;999.90;;;;;;;;;;6241242;23;20070;-82
2023/08/31 02:09:20;;;;;;;1999.90;999.90;;;;;;;;;;6241552;23;20119;-78
2023/08/31 02:11:47;;;;;;;1999.90;999.90;;;;;;;;;;6242001;23;20024;-82
2023/08/31 02:14:14;;;;;;;1999.90;999.90;;;;;;;;;;6242379;23;20026;-82
2023/08/31 02:16:41;;;;;;;1999.90;999.90;;;;;;;;;;6243863;23;20020;-80
2023/08/31 02:19:08;;;;;;;1999.90;999.90;;;;;;;;;;6243599;23;20478;-78
2023/08/31 02:21:39;;;;;;;1999.90;999.90;;;;;;;;;;6243716;23;20023;-78
2023/08/31 02:24:07;;;;;;;1999.90;999.90;;;;;;;;;;6244550;23;20016;-80
2023/08/31 02:26:34;;;;;;;1999.90;999.90;;;;;;;;;;6243710;23;20477;-80
2023/08/31 02:29:01;;;;;;;1999.90;999.90;;;;;;;;;;6244010;23;20020;-77
2023/08/31 02:31:27;;;;;;;1999.90;999.90;;;;;;;;;;6243026;23;20457;-79
2023/08/31 02:33:55;;;;;;;1999.90;999.90;;;;;;;;;;6243521;23;20016;-79
2023/08/31 02:36:21;;;;;;;1999.90;999.90;;;;;;;;;;6243100;23;20027;-81
2023/08/31 02:38:49;;;;;;;1999.90;999.90;;;;;;;;;;6243319;23;20025;-79
2023/08/31 02:41:16;;;;;;;1999.90;999.90;;;;;;;;;;6243239;23;20115;-83
2023/08/31 02:43:42;;;;;;;1999.90;999.90;;;;;;;;;;6243587;23;20476;-84
2023/08/31 02:46:09;;;;;;;1999.90;999.90;;;;;;;;;;6243952;23;20047;-80
2023/08/31 02:48:35;;;;;;;1999.90;999.90;;;;;;;;;;6243697;23;20063;-80
2023/08/31 02:51:08;;;;;;;1999.90;999.90;;;;;;;;;;6243148;23;20099;-79
2023/08/31 02:53:35;;;;;;;1999.90;999.90;;;;;;;;;;6243265;23;20021;-79
2023/08/31 02:56:01;;;;;;;1999.90;999.90;;;;;;;;;;6242591;23;20477;-79
2023/08/31 02:58:28;;;;;;;1999.90;999.90;;;;;;;;;;6243680;23;20048;-80
2023/08/31 03:00:55;;;;;;;1999.90;999.90;;;;;;;;;;6243181;23;20016;-78
2023/08/31 03:03:22;;;;;;;1999.90;999.90;;;;;;;;;;6243159;22;20020;-79
2023/08/31 03:05:48;;;;;;;1999.90;999.90;;;;;;;;;;6243825;23;20056;-79
2023/08/31 03:08:16;;;;;;;1999.90;999.90;;;;;;;;;;6243201;23;20454;-79
2023/08/31 03:10:43;;;;;;;1999.90;999.90;;;;;;;;;;6242955;23;20020;-81
2023/08/31 03:13:09;;;;;;;1999.90;999.90;;;;;;;;;;6242894;23;20024;-80
2023/08/31 03:15:36;;;;;;;1999.90;999.90;;;;;;;;;;6242129;23;20031;-81
2023/08/31 03:18:02;;;;;;;1999.90;999.90;;;;;;;;;;6241885;23;20024;-86
2023/08/31 03:20:29;;;;;;;1999.90;999.90;;;;;;;;;;6242018;23;20020;-78
2023/08/31 03:22:55;;;;;;;1999.90;999.90;;;;;;;;;;6241814;23;20107;-83
2023/08/31 03:25:24;;;;;;;1999.90;999.90;;;;;;;;;;6242521;23;20320;-83
2023/08/31 03:27:50;;;;;;;1999.90;999.90;;;;;;;;;;6244958;23;20541;-81
2023/08/31 03:30:17;;;;;;;1999.90;999.90;;;;;;;;;;6245019;23;20020;-80
2023/08/31 03:32:43;;;;;;;1999.90;999.90;;;;;;;;;;6244360;23;20020;-82
2023/08/31 03:35:10;;;;;;;1999.90;999.90;;;;;;;;;;6245139;23;20027;-80
2023/08/31 03:37:36;;;;;;;1999.90;999.90;;;;;;;;;;6244978;23;20024;-81
2023/08/31 03:40:06;;;;;;;1999.90;999.90;;;;;;;;;;6245404;23;20115;-79
2023/08/31 03:42:34;;;;;;;1999.90;999.90;;;;;;;;;;6244838;23;20086;-80
2023/08/31 03:45:01;;;;;;;1999.90;999.90;;;;;;;;;;6244795;23;20020;-79
2023/08/31 03:47:27;;;;;;;1999.90;999.90;;;;;;;;;;6245224;23;20038;-85
2023/08/31 03:49:54;;;;;;;1999.90;999.90;;;;;;;;;;6245941;23;20016;-82
2023/08/31 03:52:25;;;;;;;1999.90;999.90;;;;;;;;;;6245342;23;20031;-80
2023/08/31 03:54:52;;;;;;;1999.90;999.90;;;;;;;;;;6245155;23;20320;-82
2023/08/31 03:57:19;;;;;;;1999.90;999.90;;;;;;;;;;6245482;23;20016;-79
2023/08/31 03:59:47;;;;;;;1999.90;999.90;;;;;;;;;;6245189;23;20095;-79
2023/08/31 04:02:13;;;;;;;1999.90;999.90;;;;;;;;;;6245736;23;20023;-86
2023/08/31 04:04:40;;;;;;;1999.90;999.90;;;;;;;;;;6245092;23;20398;-79
2023/08/31 04:07:06;;;;;;;1999.90;999.90;;;;;;;;;;6245153;23;20038;-79
2023/08/31 04:09:33;;;;;;;1999.90;999.90;;;;;;;;;;6244604;23;20030;-81
2023/08/31 04:11:59;;;;;;;1999.90;999.90;;;;;;;;;;6245367;23;20059;-79
2023/08/31 04:14:27;;;;;;;1999.90;999.90;;;;;;;;;;6245000;23;20027;-80
2023/08/31 04:16:55;;;;;;;1999.90;999.90;;;;;;;;;;6244803;23;20016;-82
2023/08/31 04:19:21;;;;;;;1999.90;999.90;;;;;;;;;;6244353;23;20020;-82
2023/08/31 04:21:48;;;;;;;1999.90;999.90;;;;;;;;;;6244054;23;20104;-83
2023/08/31 04:24:14;;;;;;;1999.90;999.90;;;;;;;;;;6244748;23;20382;-80
2023/08/31 04:26:41;;;;;;;1999.90;999.90;;;;;;;;;;6244974;23;20089;-81
2023/08/31 04:29:07;;;;;;;1999.90;999.90;;;;;;;;;;6244717;23;20020;-79
2023/08/31 04:31:34;;;;;;;1999.90;999.90;;;;;;;;;;6244172;23;20016;-81
2023/08/31 04:34:02;;;;;;;1999.90;999.90;;;;;;;;;;6244501;23;20074;-79
2023/08/31 04:36:28;;;;;;;1999.90;999.90;;;;;;;;;;6244812;23;20044;-81
2023/08/31 04:38:55;;;;;;;1999.90;999.90;;;;;;;;;;6244521;23;20016;-80
2023/08/31 04:41:21;;;;;;;1999.90;999.90;;;;;;;;;;6243612;23;20027;-81
2023/08/31 04:43:48;;;;;;;1999.90;999.90;;;;;;;;;;6243767;23;20020;-81
2023/08/31 04:46:15;;;;;;;1999.90;999.90;;;;;;;;;;6244118;23;20020;-82
2023/08/31 04:48:41;;;;;;;1999.90;999.90;;;;;;;;;;6244164;23;20342;-80
2023/08/31 04:54:20;;;;;;;1999.90;999.90;;;;;;;;;;5128776;27;20135;-83
2023/08/31 04:56:46;;;;;;;1999.90;999.90;;;;;;;;;;5109379;28;20043;-79
2023/08/31 04:59:13;;;;;;;1999.90;999.90;;;;;;;;;;5115159;28;20039;-80
2023/08/31 05:01:39;;;;;;;1999.90;999.90;;;;;;;;;;5110921;28;20330;-78
2023/08/31 05:04:06;;;;;;;1999.90;999.90;;;;;;;;;;5112454;28;20059;-80
2023/08/31 05:06:33;;;;;;;1999.90;999.90;;;;;;;;;;5107620;28;20502;-79
2023/08/31 05:08:59;;;;;;;1999.90;999.90;;;;;;;;;;5103163;28;20047;-79
2023/08/31 05:11:27;;;;;;;1999.90;999.90;;;;;;;;;;5107825;28;20882;-75
2023/08/31 05:13:54;;;;;;;1999.90;999.90;;;;;;;;;;5105691;28;20047;-76
2023/08/31 05:16:20;;;;;;;1999.90;999.90;;;;;;;;;;5109862;28;20514;-76
2023/08/31 05:18:47;;;;;;;1999.90;999.90;;;;;;;;;;5112896;28;20044;-75
2023/08/31 05:21:13;;;;;;;1999.90;999.90;;;;;;;;;;5108771;28;20048;-77
2023/08/31 05:23:39;;;;;;;1999.90;999.90;;;;;;;;;;5106813;28;20048;-85
2023/08/31 05:26:06;;;;;;;1999.90;999.90;;;;;;;;;;5112694;28;20048;-78
2023/08/31 05:28:34;;;;;;;1999.90;999.90;;;;;;;;;;5108871;28;20054;-76
2023/08/31 05:31:02;;;;;;;1999.90;999.90;;;;;;;;;;5112106;28;20054;-79
2023/08/31 05:33:33;;;;;;;1999.90;999.90;;;;;;;;;;5109128;28;20048;-75
2023/08/31 05:36:01;;;;;;;1999.90;999.90;;;;;;;;;;5100616;28;20231;-82
2023/08/31 05:38:28;;;;;;;1999.90;999.90;;;;;;;;;;5112450;28;20105;-77
2023/08/31 05:40:54;;;;;;;1999.90;999.90;;;;;;;;;;5110734;28;20047;-77
2023/08/31 05:43:21;;;;;;;1999.90;999.90;;;;;;;;;;5106798;28;20052;-76
2023/08/31 05:45:49;;;;;;;1999.90;999.90;;;;;;;;;;5106837;28;20368;-75
2023/08/31 05:48:15;;;;;;;1999.90;999.90;;;;;;;;;;5111224;28;20036;-76
2023/08/31 05:50:47;;;;;;;1999.90;999.90;;;;;;;;;;5108723;28;20040;-76
2023/08/31 05:53:13;;;;;;;1999.90;999.90;;;;;;;;;;5108582;28;20044;-77
2023/08/31 05:55:40;;;;;;;1999.90;999.90;;;;;;;;;;5108095;28;20046;-78
2023/08/31 05:58:06;;;;;;;1999.90;999.90;;;;;;;;;;5113849;28;20131;-76
2023/08/31 06:00:33;;;;;;;1999.90;999.90;;;;;;;;;;5113334;28;20499;-76
2023/08/31 06:03:01;;;;;;;1999.90;999.90;;;;;;;;;;5106492;28;20058;-78
2023/08/31 06:05:29;;;;;;;1999.90;999.90;;;;;;;;;;5101670;28;20052;-76
2023/08/31 06:07:56;;;;;;;1999.90;999.90;;;;;;;;;;5096876;28;20138;-80
2023/08/31 06:10:23;;;;;;;1999.90;999.90;;;;;;;;;;5096375;28;20381;-76
2023/08/31 06:12:49;;;;;;;1999.90;999.90;;;;;;;;;;5096334;28;20051;-76
2023/08/31 06:15:16;;;;;;;1999.90;999.90;;;;;;;;;;5096097;28;20492;-76
2023/08/31 06:17:42;;;;;;;1999.90;999.90;;;;;;;;;;5092792;28;20112;-77
2023/08/31 06:20:12;;;;;;;1999.90;999.90;;;;;;;;;;5100163;28;20059;-76
2023/08/31 06:22:44;;;;;;;1999.90;999.90;;;;;;;;;;5101635;28;20048;-82
2023/08/31 06:25:11;;;;;;;1999.90;999.90;;;;;;;;;;5092950;28;20049;-77
2023/08/31 06:27:38;;;;;;;1999.90;999.90;;;;;;;;;;5094893;28;20079;-79
2023/08/31 06:30:07;;;;;;;1999.90;999.90;;;;;;;;;;5095505;28;20123;-77
2023/08/31 06:32:33;;;;;;;1999.90;999.90;;;;;;;;;;5096463;28;20044;-78
2023/08/31 06:35:00;;;;;;;1999.90;999.90;;;;;;;;;;5091144;28;20492;-76
2023/08/31 06:37:28;;;;;;;1999.90;999.90;;;;;;;;;;5089686;28;20048;-76
2023/08/31 06:39:54;;;;;;;1999.90;999.90;;;;;;;;;;5095079;28;20080;-76
2023/08/31 06:42:21;;;;;;;1999.90;999.90;;;;;;;;;;5095149;28;20054;-76
2023/08/31 06:44:47;;;;;;;1999.90;999.90;;;;;;;;;;5099772;28;20044;-77
2023/08/31 06:47:17;;;;;;;1999.90;999.90;;;;;;;;;;5096154;28;20484;-78
2023/08/31 06:49:43;;;;;;;1999.90;999.90;;;;;;;;;;5093932;28;20439;-76
2023/08/31 06:52:10;;;;;;;1999.90;999.90;;;;;;;;;;5096205;28;20480;-76
2023/08/31 06:54:38;;;;;;;1999.90;999.90;;;;;;;;;;5091138;28;20492;-76
2023/08/31 06:57:05;;;;;;;1999.90;999.90;;;;;;;;;;5095675;28;20101;-76
2023/08/31 06:59:31;;;;;;;1999.90;999.90;;;;;;;;;;5092364;28;20036;-77
2023/08/31 07:01:58;;;;;;;1999.90;999.90;;;;;;;;;;5094445;28;20477;-78
2023/08/31 07:04:24;;;;;;;1999.90;999.90;;;;;;;;;;5095425;28;20040;-77
2023/08/31 07:06:51;;;;;;;1999.90;999.90;;;;;;;;;;5097441;28;20044;-78
2023/08/31 07:09:18;;;;;;;1999.90;999.90;;;;;;;;;;5092346;28;20051;-77
2023/08/31 07:11:46;;;;;;;1999.90;999.90;;;;;;;;;;5098218;28;20127;-76
2023/08/31 07:14:12;;;;;;;1999.90;999.90;;;;;;;;;;5094329;28;20052;-76
2023/08/31 07:16:39;;;;;;;1999.90;999.90;;;;;;;;;;5093657;28;20054;-77
2023/08/31 07:19:05;;;;;;;1999.90;999.90;;;;;;;;;;5109396;28;20044;-76
2023/08/31 07:21:32;;;;;;;1999.90;999.90;;;;;;;;;;5096922;28;20494;-77
2023/08/31 07:23:58;;;;;;;1999.90;999.90;;;;;;;;;;5098316;28;20510;-76
2023/08/31 07:26:25;;;;;;;1999.90;999.90;;;;;;;;;;5099558;28;20040;-75
2023/08/31 07:28:53;;;;;;;1999.90;999.90;;;;;;;;;;5096811;28;20119;-77
2023/08/31 07:31:19;;;;;;;1999.90;999.90;;;;;;;;;;5096336;28;20485;-78
2023/08/31 07:33:46;;;;;;;1999.90;999.90;;;;;;;;;;5100959;28;20131;-77
2023/08/31 07:36:12;;;;;;;1999.90;999.90;;;;;;;;;;5097578;28;20040;-78
2023/08/31 07:38:39;;;;;;;1999.90;999.90;;;;;;;;;;5091961;28;20043;-77
2023/08/31 07:41:05;;;;;;;1999.90;999.90;;;;;;;;;;5089686;28;20456;-77
2023/08/31 07:43:32;;;;;;;1999.90;999.90;;;;;;;;;;5093348;28;20084;-77
2023/08/31 07:46:00;;;;;;;1999.90;999.90;;;;;;;;;;5094141;28;20055;-76
2023/08/31 07:48:26;;;;;;;1999.90;999.90;;;;;;;;;;5095192;28;20044;-77
2023/08/31 07:50:53;;;;;;;1999.90;999.90;;;;;;;;;;5093436;28;20040;-77
2023/08/31 07:53:19;;;;;;;1999.90;999.90;;;;;;;;;;5097729;28;20488;-77
2023/08/31 07:55:54;;;;;;;1999.90;999.90;;;;;;;;;;5093428;28;20045;-79
2023/08/31 07:58:21;;;;;;;1999.90;999.90;;;;;;;;;;5089261;28;20427;-76
2023/08/31 08:00:47;;;;;;;1999.90;999.90;;;;;;;;;;5096504;28;20043;-79
2023/08/31 08:03:15;;;;;;;1999.90;999.90;;;;;;;;;;5096295;28;20047;-77
2023/08/31 08:05:42;;;;;;;1999.90;999.90;;;;;;;;;;5095166;28;20554;-77
2023/08/31 08:08:08;;;;;;;1999.90;999.90;;;;;;;;;;5091490;28;20047;-78
2023/08/31 08:10:35;;;;;;;1999.90;999.90;;;;;;;;;;5097403;28;20055;-77
2023/08/31 08:13:01;;;;;;;1999.90;999.90;;;;;;;;;;5096687;28;20060;-80
2023/08/31 08:15:28;;;;;;;1999.90;999.90;;;;;;;;;;5083081;28;20051;-77
2023/08/31 08:17:54;;;;;;;1999.90;999.90;;;;;;;;;;5095694;28;20402;-77
2023/08/31 08:20:22;;;;;;;1999.90;999.90;;;;;;;;;;5086567;28;20048;-79
2023/08/31 08:22:52;;;;;;;1999.90;999.90;;;;;;;;;;5098438;28;20040;-77
2023/08/31 08:25:18;;;;;;;1999.90;999.90;;;;;;;;;;5092698;28;20044;-74
2023/08/31 08:27:45;;;;;;;1999.90;999.90;;;;;;;;;;5101066;28;20048;-76
2023/08/31 08:30:12;;;;;;;1999.90;999.90;;;;;;;;;;5087948;28;20060;-77
2023/08/31 08:32:38;;;;;;;1999.90;999.90;;;;;;;;;;5083779;28;20055;-75
2023/08/31 08:35:05;;;;;;;1999.90;999.90;;;;;;;;;;5094985;28;20070;-76
2023/08/31 08:37:33;;;;;;;1999.90;999.90;;;;;;;;;;5093410;28;20048;-78
2023/08/31 08:40:00;;;;;;;1999.90;999.90;;;;;;;;;;5094841;28;20100;-77
2023/08/31 08:42:27;;;;;;;1999.90;999.90;;;;;;;;;;5091544;28;20040;-77
2023/08/31 08:44:53;;;;;;;1999.90;999.90;;;;;;;;;;5091063;28;20058;-79
2023/08/31 08:47:20;;;;;;;1999.90;999.90;;;;;;;;;;5092893;28;20047;-78
2023/08/31 08:49:47;;;;;;;1999.90;999.90;;;;;;;;;;5093092;28;20411;-79
2023/08/31 08:52:14;;;;;;;1999.90;999.90;;;;;;;;;;5090432;28;20050;-77
2023/08/31 08:54:42;;;;;;;1999.90;999.90;;;;;;;;;;5091690;28;20582;-78
2023/08/31 08:57:09;;;;;;;1999.90;999.90;;;;;;;;;;5100167;28;20044;-77
2023/08/31 08:59:35;;;;;;;1999.90;999.90;;;;;;;;;;5094111;28;20120;-79
2023/08/31 09:02:03;;;;;;;1999.90;999.90;;;;;;;;;;5094198;28;20046;-78
2023/08/31 09:04:30;;;;;;;1999.90;999.90;;;;;;;;;;5092615;28;20043;-78
2023/08/31 09:06:57;;;;;;;1999.90;999.90;;;;;;;;;;5092842;28;20070;-77
2023/08/31 09:09:23;;;;;;;1999.90;999.90;;;;;;;;;;5093983;28;20048;-77
2023/08/31 09:11:51;;;;;;;1999.90;999.90;;;;;;;;;;5092197;28;20040;-77
2023/08/31 09:14:19;;;;;;;1999.90;999.90;;;;;;;;;;5095147;28;20044;-76
2023/08/31 09:16:46;;;;;;;1999.90;999.90;;;;;;;;;;5099904;28;20426;-77
2023/08/31 09:19:20;;;;;;;1999.90;999.90;;;;;;;;;;5092817;28;20048;-76
2023/08/31 09:21:48;;;;;;;1999.90;999.90;;;;;;;;;;5094810;28;20043;-76
2023/08/31 09:24:14;;;;;;;1999.90;999.90;;;;;;;;;;5092639;28;20490;-74
2023/08/31 09:26:41;;;;;;;1999.90;999.90;;;;;;;;;;5088838;28;20044;-75
2023/08/31 09:29:09;;;;;;;1999.90;999.90;;;;;;;;;;5088100;28;20052;-79
2023/08/31 09:31:35;;;;;;;1999.90;999.90;;;;;;;;;;5088025;28;20044;-76
2023/08/31 09:34:03;;;;;;;1999.90;999.90;;;;;;;;;;5098830;28;20052;-77
2023/08/31 09:36:29;;;;;;;1999.90;999.90;;;;;;;;;;5089937;28;20052;-77
2023/08/31 09:38:58;;;;;;;1999.90;999.90;;;;;;;;;;5094607;28;20074;-78
2023/08/31 09:41:25;;;;;;;1999.90;999.90;;;;;;;;;;5097611;28;20056;-77
2023/08/31 09:43:52;;;;;;;1999.90;999.90;;;;;;;;;;5094257;28;20048;-75
2023/08/31 09:46:21;;;;;;;1999.90;999.90;;;;;;;;;;5092792;28;20062;-75
2023/08/31 09:48:48;;;;;;;1999.90;999.90;;;;;;;;;;5091146;28;20484;-76
2023/08/31 09:51:17;;;;;;;1999.90;999.90;;;;;;;;;;5094563;28;20467;-74
2023/08/31 09:53:43;;;;;;;1999.90;999.90;;;;;;;;;;5095018;28;20044;-77
2023/08/31 09:56:13;;;;;;;1999.90;999.90;;;;;;;;;;5095504;28;20044;-76
2023/08/31 09:58:39;;;;;;;1999.90;999.90;;;;;;;;;;5094292;28;20499;-75
2023/08/31 10:01:06;;;;;;;1999.90;999.90;;;;;;;;;;5101906;28;20048;-76
2023/08/31 10:03:34;;;;;;;1999.90;999.90;;;;;;;;;;5090832;28;20403;-75
2023/08/31 10:06:01;;;;;;;1999.90;999.90;;;;;;;;;;5091551;28;20060;-79
2023/08/31 10:08:31;;;;;;;1999.90;999.90;;;;;;;;;;5096267;28;20044;-75
2023/08/31 10:10:59;;;;;;;1999.90;999.90;;;;;;;;;;5092505;28;20097;-74
2023/08/31 10:13:26;;;;;;;1999.90;999.90;;;;;;;;;;5098240;28;20058;-78
2023/08/31 10:15:53;;;;;;;1999.90;999.90;;;;;;;;;;5093737;28;20068;-75
2023/08/31 10:18:20;;;;;;;1999.90;999.90;;;;;;;;;;5097774;28;20055;-78
2023/08/31 10:20:48;;;;;;;1999.90;999.90;;;;;;;;;;5092856;28;20044;-74
2023/08/31 10:23:14;;;;;;;1999.90;999.90;;;;;;;;;;5091379;28;20054;-74
2023/08/31 10:26:00;;;;;;;1999.90;999.90;;;;;;;;;;5097931;28;20043;-75
2023/08/31 10:28:28;;;;;;;1999.90;999.90;;;;;;;;;;5099912;28;20048;-75
2023/08/31 10:31:02;;;;;;;1999.90;999.90;;;;;;;;;;5097611;28;20109;-74
2023/08/31 10:33:29;;;;;;;1999.90;999.90;;;;;;;;;;5094218;28;20055;-75
2023/08/31 10:35:57;;;;;;;1999.90;999.90;;;;;;;;;;5103112;28;20155;-74
2023/08/31 10:38:26;;;;;;;1999.90;999.90;;;;;;;;;;5087887;28;20074;-75
2023/08/31 10:41:04;;;;;;;1999.90;999.90;;;;;;;;;;5087474;28;20055;-75
2023/08/31 10:43:45;;;;;;;1999.90;999.90;;;;;;;;;;5096150;28;20066;-74
2023/08/31 10:46:33;;;;;;;1999.90;999.90;;;;;;;;;;5093454;28;20043;-77
2023/08/31 10:49:01;;;;;;;1999.90;999.90;;;;;;;;;;5095878;28;20048;-77
2023/08/31 10:51:31;;;;;;;1999.90;999.90;;;;;;;;;;5096605;28;20047;-75
2023/08/31 10:54:09;;;;;;;1999.90;999.90;;;;;;;;;;5088509;28;20493;-75
2023/08/31 10:56:48;;;;;;;1999.90;999.90;;;;;;;;;;5096221;28;20052;-76
2023/08/31 10:59:14;;;;;;;1999.90;999.90;;;;;;;;;;5092412;28;20048;-76
2023/08/31 11:01:57;;;;;;;1999.90;999.90;;;;;;;;;;5095915;28;20050;-80
2023/08/31 11:04:24;;;;;;;1999.90;999.90;;;;;;;;;;5091063;28;20048;-75
2023/08/31 11:07:12;;;;;;;1999.90;999.90;;;;;;;;;;5090535;28;20036;-75
2023/08/31 11:09:39;;;;;;;1999.90;999.90;;;;;;;;;;5092386;28;20040;-75
2023/08/31 11:12:06;;;;;;;1999.90;999.90;;;;;;;;;;5087608;28;20051;-77
2023/08/31 11:14:33;;;;;;;1999.90;999.90;;;;;;;;;;5094098;28;20404;-75
2023/08/31 11:17:00;;;;;;;1999.90;999.90;;;;;;;;;;5092361;28;20053;-74
2023/08/31 11:19:27;;;;;;;1999.90;999.90;;;;;;;;;;5090751;28;20048;-79
2023/08/31 11:21:54;;;;;;;1999.90;999.90;;;;;;;;;;5093420;28;20231;-75
2023/08/31 11:24:22;;;;;;;1999.90;999.90;;;;;;;;;;5093724;28;20386;-77
2023/08/31 11:26:49;;;;;;;1999.90;999.90;;;;;;;;;;5089242;28;20051;-76
2023/08/31 11:29:15;;;;;;;1999.90;999.90;;;;;;;;;;5095830;28;20412;-77
2023/08/31 11:31:42;;;;;;;1999.90;999.90;;;;;;;;;;5095314;28;20052;-77
2023/08/31 11:34:12;;;;;;;1999.90;999.90;;;;;;;;;;5093584;28;20481;-74
2023/08/31 11:36:40;;;;;;;1999.90;999.90;;;;;;;;;;5092110;28;20045;-74
2023/08/31 11:39:09;;;;;;;1999.90;999.90;;;;;;;;;;5097793;28;20052;-74
2023/08/31 11:41:40;;;;;;;1999.90;999.90;;;;;;;;;;5086103;28;20052;-77
2023/08/31 11:44:07;;;;;;;1999.90;999.90;;;;;;;;;;5094607;28;20040;-75
2023/08/31 11:46:33;;;;;;;1999.90;999.90;;;;;;;;;;5092347;28;20050;-75
2023/08/31 11:49:00;;;;;;;1999.90;999.90;;;;;;;;;;5095480;28;20045;-74
2023/08/31 11:51:33;;;;;;;1999.90;999.90;;;;;;;;;;5102580;28;20046;-76
2023/08/31 11:54:02;;;;;;;1999.90;999.90;;;;;;;;;;5095496;28;20070;-74
2023/08/31 11:56:39;;;;;;;1999.90;999.90;;;;;;;;;;5091390;28;20424;-75
2023/08/31 11:59:08;;;;;;;1999.90;999.90;;;;;;;;;;5088616;28;20066;-74
2023/08/31 12:01:38;;;;;;;1999.90;999.90;;;;;;;;;;5101375;28;20040;-74
2023/08/31 12:04:10;;;;;;;1999.90;999.90;;;;;;;;;;5090684;28;20054;-74
2023/08/31 12:06:37;;;;;;;1999.90;999.90;;;;;;;;;;5102757;28;20131;-77
2023/08/31 12:09:05;;;;;;;1999.90;999.90;;;;;;;;;;5095970;28;20399;-75
2023/08/31 12:11:33;;;;;;;1999.90;999.90;;;;;;;;;;5096466;28;20040;-78
2023/08/31 12:14:00;;;;;;;1999.90;999.90;;;;;;;;;;5097600;28;20416;-76
2023/08/31 12:16:33;;;;;;;1999.90;999.90;;;;;;;;;;5087977;28;20063;-79
2023/08/31 12:19:00;;;;;;;1999.90;999.90;;;;;;;;;;5095087;28;20036;-75
2023/08/31 12:21:27;;;;;;;1999.90;999.90;;;;;;;;;;5091243;28;20461;-75
2023/08/31 12:23:53;;;;;;;1999.90;999.90;;;;;;;;;;5095591;28;20047;-74
2023/08/31 12:26:19;;;;;;;1999.90;999.90;;;;;;;;;;5094098;28;20560;-74
2023/08/31 12:28:47;;;;;;;1999.90;999.90;;;;;;;;;;5099332;28;20060;-76
2023/08/31 12:31:14;;;;;;;1999.90;999.90;;;;;;;;;;5097310;28;20044;-80
2023/08/31 12:33:40;;;;;;;1999.90;999.90;;;;;;;;;;5087547;28;20040;-76
2023/08/31 12:36:07;;;;;;;1999.90;999.90;;;;;;;;;;5090971;28;20048;-76
2023/08/31 12:38:34;;;;;;;1999.90;999.90;;;;;;;;;;5084381;28;20059;-79
2023/08/31 12:41:01;;;;;;;1999.90;999.90;;;;;;;;;;5084246;28;20059;-74
2023/08/31 12:43:28;;;;;;;1999.90;999.90;;;;;;;;;;5089573;28;20055;-75
2023/08/31 12:45:56;;;;;;;1999.90;999.90;;;;;;;;;;5087250;28;20129;-75
2023/08/31 12:48:22;;;;;;;1999.90;999.90;;;;;;;;;;5093155;28;20127;-75
2023/08/31 12:50:49;;;;;;;1999.90;999.90;;;;;;;;;;5091438;28;20050;-75
2023/08/31 12:53:15;;;;;;;1999.90;999.90;;;;;;;;;;5087022;28;20048;-76
2023/08/31 12:55:42;;;;;;;1999.90;999.90;;;;;;;;;;5089214;28;20404;-74
2023/08/31 12:58:09;;;;;;;1999.90;999.90;;;;;;;;;;5087556;28;20051;-75
2023/08/31 13:00:35;;;;;;;1999.90;999.90;;;;;;;;;;5092501;28;20070;-74
2023/08/31 13:03:03;;;;;;;1999.90;999.90;;;;;;;;;;5090915;28;20079;-80
2023/08/31 13:05:30;;;;;;;1999.90;999.90;;;;;;;;;;5087464;28;20054;-75
2023/08/31 13:07:56;;;;;;;1999.90;999.90;;;;;;;;;;5096724;28;20044;-74
2023/08/31 13:10:23;;;;;;;1999.90;999.90;;;;;;;;;;5095727;28;20043;-76
2023/08/31 13:12:50;;;;;;;1999.90;999.90;;;;;;;;;;5091127;28;20070;-75
2023/08/31 13:15:17;;;;;;;1999.90;999.90;;;;;;;;;;5092311;28;20431;-77
2023/08/31 13:17:43;;;;;;;1999.90;999.90;;;;;;;;;;5096708;28;20048;-75
2023/08/31 13:20:12;;;;;;;1999.90;999.90;;;;;;;;;;5098788;28;20059;-75
2023/08/31 13:22:39;;;;;;;1999.90;999.90;;;;;;;;;;5092676;28;20050;-76
2023/08/31 13:25:06;;;;;;;1999.90;999.90;;;;;;;;;;5095914;28;20059;-75
2023/08/31 13:27:33;;;;;;;1999.90;999.90;;;;;;;;;;5098627;28;20044;-77
2023/08/31 13:30:00;;;;;;;1999.90;999.90;;;;;;;;;;5092094;28;20055;-76
2023/08/31 13:32:27;;;;;;;1999.90;999.90;;;;;;;;;;5096241;28;20059;-77
2023/08/31 13:34:53;;;;;;;1999.90;999.90;;;;;;;;;;5095598;28;20114;-76
2023/08/31 13:37:21;;;;;;;1999.90;999.90;;;;;;;;;;5096671;28;20044;-75
2023/08/31 13:39:51;;;;;;;1999.90;999.90;;;;;;;;;;5104580;28;20397;-75
2023/08/31 13:42:17;;;;;;;1999.90;999.90;;;;;;;;;;5096174;28;20044;-76
2023/08/31 13:44:44;;;;;;;1999.90;999.90;;;;;;;;;;5102576;28;20054;-75
2023/08/31 13:47:10;;;;;;;1999.90;999.90;;;;;;;;;;5091799;28;20044;-75